Time;durP1;ratioP1;P1;durP2;ratioP2;P2;SDS_P1;SDS_P2;PMS_P1;PMS_P2;Temp;Humidity;BMP_temperature;BMP_pressure;BME280_temperature;BME280_humidity;BME280_pressure;Samples;Min_cycle;Max_cycle;Signal;HPM_P1;HPM_P2
2021/04/26 00:00:36;;;;;;;;;;;19.40;52.40;;;;;;5061133;28;19928;-60
2021/04/26 00:03:03;;;;;;;;;;;19.40;52.40;;;;;;5055975;28;19970;-60
2021/04/26 00:05:29;;;;;;;;;;;19.40;52.40;;;;;;5063284;28;19924;-61
2021/04/26 00:07:56;;;;;;;;;;;19.40;52.40;;;;;;5058972;28;20518;-61
2021/04/26 00:10:22;;;;;;;;;;;19.40;52.30;;;;;;5067406;28;20317;-61
2021/04/26 00:12:49;;;;;;;;;;;19.40;52.30;;;;;;5054045;28;19924;-61
2021/04/26 00:15:34;;;;;;;;;;;19.30;52.30;;;;;;5065044;28;20308;-61
2021/04/26 00:18:00;;;;;;;;;;;19.30;52.20;;;;;;5049754;28;19925;-61
2021/04/26 00:20:28;;;;;;;;;;;19.30;52.20;;;;;;5064711;28;19932;-61
2021/04/26 00:22:55;;;;;;;;;;;19.30;52.10;;;;;;5058309;28;19925;-61
2021/04/26 00:25:21;;;;;;;;;;;19.30;52.10;;;;;;5064050;28;20316;-60
2021/04/26 00:27:47;;;;;;;;;;;19.30;52.10;;;;;;5060798;28;20398;-60
2021/04/26 00:30:15;;;;;;;;;;;19.20;52.20;;;;;;5062920;28;20578;-60
2021/04/26 00:32:42;;;;;;;;;;;19.20;52.10;;;;;;5051536;28;19925;-61
2021/04/26 00:35:08;;;;;;;;;;;19.30;52.20;;;;;;5060316;28;20730;-61
2021/04/26 00:37:35;;;;;;;;;;;19.20;52.10;;;;;;5057050;28;20373;-61
2021/04/26 00:40:01;;;;;;;;;;;19.20;52.10;;;;;;5061056;28;19925;-60
2021/04/26 00:42:27;;;;;;;;;;;19.20;52.00;;;;;;5053786;28;19924;-60
2021/04/26 00:44:53;;;;;;;;;;;19.20;52.00;;;;;;5056716;28;19928;-60
2021/04/26 00:47:19;;;;;;;;;;;19.20;52.00;;;;;;5066314;28;19928;-60
2021/04/26 00:49:45;;;;;;;;;;;19.20;52.00;;;;;;5054820;28;20538;-61
2021/04/26 00:52:12;;;;;;;;;;;19.20;52.00;;;;;;5056919;28;20507;-61
2021/04/26 00:54:38;;;;;;;;;;;19.20;52.00;;;;;;5056661;28;19925;-61
2021/04/26 00:57:04;;;;;;;;;;;19.10;51.90;;;;;;5066351;28;20365;-61
2021/04/26 00:59:31;;;;;;;;;;;19.10;51.90;;;;;;5064014;28;19924;-61
2021/04/26 01:01:57;;;;;;;;;;;19.10;51.80;;;;;;5060730;28;19924;-61
2021/04/26 01:04:24;;;;;;;;;;;19.10;51.80;;;;;;5057813;28;19928;-61
2021/04/26 01:06:50;;;;;;;;;;;19.10;51.90;;;;;;5060728;28;20404;-61
2021/04/26 01:09:16;;;;;;;;;;;19.10;51.80;;;;;;5051475;28;19936;-60
2021/04/26 01:11:45;;;;;;;;;;;19.10;51.80;;;;;;5060113;28;19924;-61
2021/04/26 01:14:30;;;;;;;;;;;19.10;51.80;;;;;;5065264;28;20293;-61
2021/04/26 01:17:08;;;;;;;;;;;19.10;51.70;;;;;;5049752;28;20000;-61
2021/04/26 01:19:55;;;;;;;;;;;19.00;51.70;;;;;;5050876;28;19929;-61
2021/04/26 01:22:54;;;;;;;;;;;19.00;51.60;;;;;;5046931;28;21569;-61
2021/04/26 01:25:20;;;;;;;;;;;19.00;51.70;;;;;;4990091;28;20755;-61
2021/04/26 01:27:47;;;;;;;;;;;19.00;51.60;;;;;;5057139;28;19932;-61
2021/04/26 01:30:18;;;;;;;;;;;19.00;51.50;;;;;;5059517;28;19932;-61
2021/04/26 01:32:47;;;;;;;;;;;19.00;51.50;;;;;;5062424;28;21379;-61
2021/04/26 01:35:17;;;;;;;;;;;19.00;51.50;;;;;;5064819;28;20397;-61
2021/04/26 01:37:45;;;;;;;;;;;18.90;51.50;;;;;;5055764;28;20255;-61
2021/04/26 01:40:12;;;;;;;;;;;19.00;51.70;;;;;;5061449;28;20796;-61
2021/04/26 01:42:40;;;;;;;;;;;19.00;51.50;;;;;;5062977;28;20817;-61
2021/04/26 01:45:07;;;;;;;;;;;19.00;51.40;;;;;;5063389;28;20263;-61
2021/04/26 01:47:34;;;;;;;;;;;19.00;51.70;;;;;;5049217;28;19929;-61
2021/04/26 01:50:03;;;;;;;;;;;19.00;51.40;;;;;;5061546;28;20320;-61
2021/04/26 01:52:29;;;;;;;;;;;18.90;51.40;;;;;;5053750;28;20025;-61
2021/04/26 01:54:56;;;;;;;;;;;18.90;51.40;;;;;;5060049;28;19928;-61
2021/04/26 01:57:23;;;;;;;;;;;18.90;51.40;;;;;;5050660;28;19928;-61
2021/04/26 01:59:49;;;;;;;;;;;18.90;51.30;;;;;;5059817;28;20409;-60
2021/04/26 02:02:16;;;;;;;;;;;18.90;51.30;;;;;;5065093;28;19924;-61
2021/04/26 02:04:43;;;;;;;;;;;18.90;51.30;;;;;;5063635;28;19924;-61
2021/04/26 02:07:10;;;;;;;;;;;18.90;51.20;;;;;;5060101;28;20774;-61
2021/04/26 02:09:39;;;;;;;;;;;18.90;51.20;;;;;;5057862;28;19929;-61
2021/04/26 02:12:08;;;;;;;;;;;18.90;51.20;;;;;;5055638;28;19932;-61
2021/04/26 02:14:35;;;;;;;;;;;18.80;51.20;;;;;;5054360;28;19933;-61
2021/04/26 02:17:02;;;;;;;;;;;18.80;51.20;;;;;;5057391;28;20478;-61
2021/04/26 02:19:28;;;;;;;;;;;18.80;51.20;;;;;;5064789;28;20488;-61
2021/04/26 02:21:55;;;;;;;;;;;18.80;51.10;;;;;;5064160;28;20268;-61
2021/04/26 02:24:21;;;;;;;;;;;18.80;51.10;;;;;;5065140;28;19931;-61
2021/04/26 02:26:48;;;;;;;;;;;18.80;51.10;;;;;;5059180;28;19924;-61
2021/04/26 02:29:14;;;;;;;;;;;18.80;51.10;;;;;;5050938;28;19932;-60
2021/04/26 02:31:42;;;;;;;;;;;18.80;51.10;;;;;;5061245;28;19928;-61
2021/04/26 02:34:14;;;;;;;;;;;18.80;51.10;;;;;;5053798;28;21633;-61
2021/04/26 02:36:47;;;;;;;;;;;18.80;50.90;;;;;;5061898;28;20342;-61
2021/04/26 02:39:14;;;;;;;;;;;18.70;51.00;;;;;;5065380;28;20887;-61
2021/04/26 02:41:42;;;;;;;;;;;18.80;51.00;;;;;;5062961;28;20783;-61
2021/04/26 02:44:14;;;;;;;;;;;18.70;50.90;;;;;;5047207;28;19928;-61
2021/04/26 02:46:40;;;;;;;;;;;18.70;50.90;;;;;;5058883;28;22316;-61
2021/04/26 02:49:08;;;;;;;;;;;18.80;50.90;;;;;;5050933;28;19936;-61
2021/04/26 02:51:35;;;;;;;;;;;18.70;50.90;;;;;;5059993;28;21825;-61
2021/04/26 02:54:02;;;;;;;;;;;18.70;50.90;;;;;;5056901;28;19932;-61
2021/04/26 02:56:30;;;;;;;;;;;18.70;50.80;;;;;;5058500;28;20270;-61
2021/04/26 02:58:57;;;;;;;;;;;18.70;50.80;;;;;;5064232;28;19925;-61
2021/04/26 03:01:23;;;;;;;;;;;18.70;50.80;;;;;;5055067;28;19932;-61
2021/04/26 03:03:55;;;;;;;;;;;18.70;50.80;;;;;;5058978;28;20350;-61
2021/04/26 03:06:22;;;;;;;;;;;18.70;50.70;;;;;;5061431;28;19925;-60
2021/04/26 03:08:48;;;;;;;;;;;18.60;50.60;;;;;;5061657;28;19931;-61
2021/04/26 03:11:15;;;;;;;;;;;18.60;50.70;;;;;;5046591;28;19924;-60
2021/04/26 03:13:42;;;;;;;;;;;18.60;50.60;;;;;;5067351;28;19924;-61
2021/04/26 03:16:09;;;;;;;;;;;18.60;50.70;;;;;;5060621;28;19924;-61
2021/04/26 03:18:35;;;;;;;;;;;18.60;50.60;;;;;;5066797;28;19995;-61
2021/04/26 03:21:03;;;;;;;;;;;18.60;50.60;;;;;;5054115;28;19948;-61
2021/04/26 03:23:29;;;;;;;;;;;18.60;50.60;;;;;;5064458;28;19932;-61
2021/04/26 03:25:57;;;;;;;;;;;18.60;50.50;;;;;;5065736;28;19924;-61
2021/04/26 03:28:23;;;;;;;;;;;18.60;50.50;;;;;;5065959;28;19978;-61
2021/04/26 03:30:50;;;;;;;;;;;18.60;50.40;;;;;;5055213;28;19932;-61
2021/04/26 03:33:16;;;;;;;;;;;18.60;50.40;;;;;;5046823;28;19932;-61
2021/04/26 03:35:43;;;;;;;;;;;18.60;50.40;;;;;;5063111;28;19925;-61
2021/04/26 03:38:10;;;;;;;;;;;18.60;50.40;;;;;;5046387;28;20598;-61
2021/04/26 03:40:37;;;;;;;;;;;18.50;50.30;;;;;;5052691;28;20296;-61
2021/04/26 03:43:03;;;;;;;;;;;18.50;50.40;;;;;;5066584;28;19924;-61
2021/04/26 03:45:29;;;;;;;;;;;18.50;50.30;;;;;;5068253;28;20331;-61
2021/04/26 03:47:55;;;;;;;;;;;18.50;50.30;;;;;;5061995;28;19932;-61
2021/04/26 03:50:23;;;;;;;;;;;18.50;50.30;;;;;;5056481;28;20267;-60
2021/04/26 03:52:49;;;;;;;;;;;18.50;50.30;;;;;;5061765;28;19925;-60
2021/04/26 03:55:18;;;;;;;;;;;18.50;50.20;;;;;;5059645;28;19924;-61
2021/04/26 03:57:44;;;;;;;;;;;18.50;50.20;;;;;;5065223;28;19925;-61
2021/04/26 04:00:11;;;;;;;;;;;18.50;50.30;;;;;;5051298;28;19940;-61
2021/04/26 04:02:37;;;;;;;;;;;18.40;50.20;;;;;;5057496;28;19928;-61
2021/04/26 04:05:06;;;;;;;;;;;18.50;50.30;;;;;;5059654;28;19939;-61
2021/04/26 04:07:33;;;;;;;;;;;18.40;50.20;;;;;;5044590;28;19932;-55
2021/04/26 04:09:59;;;;;;;;;;;18.40;50.30;;;;;;5061069;28;19947;-55
2021/04/26 04:12:25;;;;;;;;;;;18.40;50.30;;;;;;5062735;28;19937;-55
2021/04/26 04:14:51;;;;;;;;;;;18.40;50.30;;;;;;5062233;28;19932;-55
2021/04/26 04:17:18;;;;;;;;;;;18.40;50.20;;;;;;5057683;28;19928;-55
2021/04/26 04:19:44;;;;;;;;;;;18.40;50.20;;;;;;5068158;28;20287;-58
2021/04/26 04:22:10;;;;;;;;;;;18.40;50.70;;;;;;5057883;28;19931;-55
2021/04/26 04:24:36;;;;;;;;;;;18.40;50.20;;;;;;5064375;28;20343;-55
2021/04/26 04:27:03;;;;;;;;;;;18.40;50.20;;;;;;5051936;28;19925;-55
2021/04/26 04:29:29;;;;;;;;;;;18.40;50.30;;;;;;5063284;28;19924;-55
2021/04/26 04:31:55;;;;;;;;;;;18.40;50.20;;;;;;5055867;28;19974;-55
2021/04/26 04:34:21;;;;;;;;;;;18.40;50.10;;;;;;5065305;28;19967;-56
2021/04/26 04:36:47;;;;;;;;;;;18.30;50.00;;;;;;5064074;28;19981;-55
2021/04/26 04:39:13;;;;;;;;;;;18.30;49.90;;;;;;5066730;28;19936;-55
2021/04/26 04:41:40;;;;;;;;;;;18.30;49.90;;;;;;5066012;28;20636;-55
2021/04/26 04:44:11;;;;;;;;;;;18.30;49.90;;;;;;5065194;28;19932;-55
2021/04/26 04:46:37;;;;;;;;;;;18.40;49.90;;;;;;5055183;28;19940;-55
2021/04/26 04:49:03;;;;;;;;;;;18.30;49.80;;;;;;5064485;28;19928;-55
2021/04/26 04:51:29;;;;;;;;;;;18.30;49.70;;;;;;5067290;28;20285;-55
2021/04/26 04:53:56;;;;;;;;;;;18.30;49.70;;;;;;5061764;28;19925;-55
2021/04/26 04:56:22;;;;;;;;;;;18.30;49.70;;;;;;5054203;28;19924;-55
2021/04/26 04:58:48;;;;;;;;;;;18.30;49.70;;;;;;5061366;28;19933;-55
2021/04/26 05:01:14;;;;;;;;;;;18.30;49.70;;;;;;5053635;28;19924;-56
2021/04/26 05:03:40;;;;;;;;;;;18.30;49.60;;;;;;5059567;28;19944;-55
2021/04/26 05:06:07;;;;;;;;;;;18.30;49.60;;;;;;5063263;28;20511;-55
2021/04/26 05:08:34;;;;;;;;;;;18.30;49.60;;;;;;5066061;28;19932;-55
2021/04/26 05:11:00;;;;;;;;;;;18.20;49.50;;;;;;5066926;28;19928;-55
2021/04/26 05:13:27;;;;;;;;;;;18.30;49.60;;;;;;5059763;28;19925;-55
2021/04/26 05:15:54;;;;;;;;;;;18.30;49.60;;;;;;5061340;28;19939;-56
2021/04/26 05:18:20;;;;;;;;;;;18.20;49.50;;;;;;5056676;28;20504;-55
2021/04/26 05:20:46;;;;;;;;;;;18.30;49.50;;;;;;5058960;28;19932;-55
2021/04/26 05:23:13;;;;;;;;;;;18.20;49.40;;;;;;5065696;28;19931;-55
2021/04/26 05:25:39;;;;;;;;;;;18.20;49.30;;;;;;5065338;28;19924;-55
2021/04/26 05:28:06;;;;;;;;;;;18.20;49.30;;;;;;5051456;28;19975;-55
2021/04/26 05:30:32;;;;;;;;;;;18.20;49.20;;;;;;5062995;28;19932;-55
2021/04/26 05:32:58;;;;;;;;;;;18.20;49.20;;;;;;5060176;28;20415;-55
2021/04/26 05:35:25;;;;;;;;;;;18.20;49.20;;;;;;5062600;28;19924;-55
2021/04/26 05:37:51;;;;;;;;;;;18.20;49.20;;;;;;5047986;28;20285;-55
2021/04/26 05:40:18;;;;;;;;;;;18.20;49.20;;;;;;5063155;28;19932;-55
2021/04/26 05:42:44;;;;;;;;;;;18.20;49.10;;;;;;5059906;28;19995;-57
2021/04/26 05:45:10;;;;;;;;;;;18.20;49.10;;;;;;5065063;28;20381;-55
2021/04/26 05:47:37;;;;;;;;;;;18.20;49.10;;;;;;5050469;28;19936;-55
2021/04/26 05:50:04;;;;;;;;;;;18.20;49.10;;;;;;5061717;28;19932;-55
2021/04/26 05:52:35;;;;;;;;;;;18.10;49.00;;;;;;5051732;28;19959;-54
2021/04/26 05:55:01;;;;;;;;;;;18.20;49.10;;;;;;5055765;28;19952;-55
2021/04/26 05:57:27;;;;;;;;;;;18.20;49.00;;;;;;5032440;28;19950;-55
2021/04/26 05:59:54;;;;;;;;;;;18.20;49.00;;;;;;5045885;28;19935;-54
2021/04/26 06:02:20;;;;;;;;;;;18.20;49.00;;;;;;5045545;28;19925;-54
2021/04/26 06:04:46;;;;;;;;;;;18.10;48.90;;;;;;5046353;28;20415;-55
2021/04/26 06:07:12;;;;;;;;;;;18.20;49.00;;;;;;5045777;28;19944;-55
2021/04/26 06:09:38;;;;;;;;;;;18.20;48.90;;;;;;5045355;28;19996;-56
2021/04/26 06:12:05;;;;;;;;;;;18.20;49.00;;;;;;5045996;28;19937;-56
2021/04/26 06:14:31;;;;;;;;;;;18.20;48.90;;;;;;5044315;28;20479;-54
2021/04/26 06:16:57;;;;;;;;;;;18.20;49.00;;;;;;5038701;28;20509;-54
2021/04/26 06:19:24;;;;;;;;;;;18.20;49.00;;;;;;5046588;28;19928;-54
2021/04/26 06:21:50;;;;;;;;;;;18.10;49.00;;;;;;5043458;28;20282;-53
2021/04/26 06:24:16;;;;;;;;;;;18.10;49.10;;;;;;5033206;28;19976;-55
2021/04/26 06:26:42;;;;;;;;;;;18.20;50.60;;;;;;5040932;28;19929;-54
2021/04/26 06:29:08;;;;;;;;;;;18.20;51.30;;;;;;5035626;28;19932;-54
2021/04/26 06:31:34;;;;;;;;;;;18.20;53.10;;;;;;5044276;28;20302;-54
2021/04/26 06:34:01;;;;;;;;;;;18.20;52.50;;;;;;5036865;28;19925;-55
2021/04/26 06:36:27;;;;;;;;;;;18.20;51.90;;;;;;5043463;28;19924;-54
2021/04/26 06:38:53;;;;;;;;;;;18.20;51.40;;;;;;5039634;28;19979;-54
2021/04/26 06:41:19;;;;;;;;;;;18.20;51.00;;;;;;5047983;28;19925;-55
2021/04/26 06:43:46;;;;;;;;;;;18.20;50.80;;;;;;5033375;28;19925;-55
2021/04/26 06:46:12;;;;;;;;;;;18.20;50.40;;;;;;5045791;28;20036;-54
2021/04/26 06:48:39;;;;;;;;;;;18.20;50.10;;;;;;5044095;28;19948;-54
2021/04/26 06:51:05;;;;;;;;;;;18.20;49.90;;;;;;5049659;28;19936;-54
2021/04/26 06:53:31;;;;;;;;;;;18.20;49.90;;;;;;5045887;28;20437;-54
2021/04/26 06:55:57;;;;;;;;;;;18.20;49.70;;;;;;5056433;28;20410;-54
2021/04/26 06:58:24;;;;;;;;;;;18.20;49.50;;;;;;5070431;28;20367;-54
2021/04/26 07:00:50;;;;;;;;;;;18.20;49.50;;;;;;5061402;28;20412;-60
2021/04/26 07:03:16;;;;;;;;;;;18.30;50.90;;;;;;5061429;28;19932;-58
2021/04/26 07:05:42;;;;;;;;;;;18.30;51.70;;;;;;5063922;28;20539;-59
2021/04/26 07:08:08;;;;;;;;;;;18.40;51.60;;;;;;5067027;28;19932;-57
2021/04/26 07:10:34;;;;;;;;;;;18.50;51.40;;;;;;5064928;28;19932;-57
2021/04/26 07:13:00;;;;;;;;;;;18.50;51.10;;;;;;5068115;28;20281;-58
2021/04/26 07:15:27;;;;;;;;;;;18.70;51.00;;;;;;5063951;28;20368;-57
2021/04/26 07:17:53;;;;;;;;;;;18.70;50.60;;;;;;5067295;28;19958;-56
2021/04/26 07:20:19;;;;;;;;;;;18.70;49.80;;;;;;5062283;28;19925;-57
2021/04/26 07:22:46;;;;;;;;;;;18.80;49.70;;;;;;5067092;28;19928;-56
2021/04/26 07:25:13;;;;;;;;;;;18.80;49.30;;;;;;5064099;28;19931;-59
2021/04/26 07:27:39;;;;;;;;;;;18.90;49.10;;;;;;5066305;28;20466;-57
2021/04/26 07:30:07;;;;;;;;;;;19.00;49.00;;;;;;5062128;28;19933;-57
2021/04/26 07:32:33;;;;;;;;;;;19.00;48.40;;;;;;5066475;28;20042;-56
2021/04/26 07:34:59;;;;;;;;;;;19.00;48.10;;;;;;5062310;28;20433;-56
2021/04/26 07:37:26;;;;;;;;;;;19.10;48.00;;;;;;5065278;28;19924;-55
2021/04/26 07:39:52;;;;;;;;;;;19.20;47.70;;;;;;5063536;28;19924;-59
2021/04/26 07:42:18;;;;;;;;;;;19.20;47.60;;;;;;5064822;28;20389;-58
2021/04/26 07:44:45;;;;;;;;;;;19.20;47.40;;;;;;5063871;28;19932;-57
2021/04/26 07:47:11;;;;;;;;;;;19.20;47.10;;;;;;5062568;28;19924;-57
2021/04/26 07:49:39;;;;;;;;;;;19.20;46.00;;;;;;5062746;28;19968;-56
2021/04/26 07:52:25;;;;;;;;;;;19.10;44.60;;;;;;5047539;28;19924;-59
2021/04/26 07:56:18;;;;;;;;;;;19.10;45.60;;;;;;5001187;27;1410166;-82
2021/04/26 07:58:44;;;;;;;;;;;19.30;48.10;;;;;;5017503;28;19932;-81
2021/04/26 08:01:11;;;;;;;;;;;19.40;48.50;;;;;;5009125;28;19929;-83
2021/04/26 08:03:38;;;;;;;;;;;19.60;48.50;;;;;;5024178;28;19925;-86
2021/04/26 08:06:04;;;;;;;;;;;19.60;48.80;;;;;;5020077;28;20279;-83
2021/04/26 08:08:33;;;;;;;;;;;19.70;48.70;;;;;;5010805;28;19929;-83
2021/04/26 08:11:00;;;;;;;;;;;19.70;48.80;;;;;;5016900;28;19984;-82
2021/04/26 08:13:26;;;;;;;;;;;19.80;49.00;;;;;;5016316;28;19932;-81
2021/04/26 08:15:53;;;;;;;;;;;19.80;49.00;;;;;;5010650;28;19925;-82
2021/04/26 08:18:19;;;;;;;;;;;19.80;49.00;;;;;;5018662;28;20469;-81
2021/04/26 08:20:46;;;;;;;;;;;19.80;49.20;;;;;;5009578;28;20279;-79
2021/04/26 08:23:12;;;;;;;;;;;19.90;49.30;;;;;;5015256;28;19933;-79
2021/04/26 08:25:38;;;;;;;;;;;19.90;49.30;;;;;;5017164;28;19960;-79
2021/04/26 08:28:05;;;;;;;;;;;20.00;49.30;;;;;;5011664;28;19988;-81
2021/04/26 08:30:31;;;;;;;;;;;19.90;47.20;;;;;;5012993;28;20040;-81
2021/04/26 08:32:57;;;;;;;;;;;19.80;46.80;;;;;;5012663;28;19991;-85
2021/04/26 08:35:23;;;;;;;;;;;19.80;48.20;;;;;;5004495;28;20412;-83
2021/04/26 08:37:50;;;;;;;;;;;19.90;48.40;;;;;;5006403;28;19932;-85
2021/04/26 08:40:16;;;;;;;;;;;20.00;48.60;;;;;;5002494;28;19926;-84
2021/04/26 08:42:42;;;;;;;;;;;20.10;48.80;;;;;;5004912;28;19925;-82
2021/04/26 08:45:10;;;;;;;;;;;20.20;48.90;;;;;;4998870;28;20016;-81
2021/04/26 08:47:37;;;;;;;;;;;20.30;49.00;;;;;;4997876;28;19933;-80
2021/04/26 08:50:07;;;;;;;;;;;20.30;48.90;;;;;;5008071;28;19984;-82
2021/04/26 08:52:33;;;;;;;;;;;20.40;49.60;;;;;;5002927;28;19929;-81
2021/04/26 08:55:01;;;;;;;;;;;20.40;48.90;;;;;;5004908;28;19936;-81
2021/04/26 08:57:30;;;;;;;;;;;20.50;49.50;;;;;;4998893;28;19929;-82
2021/04/26 08:59:57;;;;;;;;;;;20.50;49.00;;;;;;5000071;28;19929;-80
2021/04/26 09:02:23;;;;;;;;;;;20.60;48.80;;;;;;5007090;28;20385;-82
2021/04/26 09:04:51;;;;;;;;;;;20.60;49.10;;;;;;5004731;28;19932;-83
2021/04/26 09:07:19;;;;;;;;;;;20.60;48.70;;;;;;4991991;28;19926;-80
2021/04/26 09:09:55;;;;;;;;;;;20.70;48.90;;;;;;4989432;28;19930;-81
2021/04/26 09:12:22;;;;;;;;;;;20.70;48.70;;;;;;4992214;28;20465;-85
2021/04/26 09:14:48;;;;;;;;;;;20.80;48.50;;;;;;4989328;28;19929;-79
2021/04/26 09:17:23;;;;;;;;;;;20.80;48.50;;;;;;4992862;28;19933;-80
2021/04/26 09:19:50;;;;;;;;;;;20.90;48.60;;;;;;4978046;28;20546;-81
2021/04/26 09:22:16;;;;;;;;;;;20.90;48.40;;;;;;4992549;28;19933;-80
2021/04/26 09:24:42;;;;;;;;;;;20.90;48.50;;;;;;4986289;28;20013;-82
2021/04/26 09:27:10;;;;;;;;;;;20.90;49.20;;;;;;4988407;28;20293;-79
2021/04/26 09:29:37;;;;;;;;;;;21.00;48.60;;;;;;4992579;28;19933;-79
2021/04/26 09:32:06;;;;;;;;;;;20.90;48.40;;;;;;4984169;28;19930;-79
2021/04/26 09:34:35;;;;;;;;;;;21.00;48.30;;;;;;4995036;28;19933;-80
2021/04/26 09:37:16;;;;;;;;;;;21.00;48.20;;;;;;4985082;28;19936;-82
2021/04/26 09:39:54;;;;;;;;;;;21.00;48.10;;;;;;5005005;28;19926;-84
2021/04/26 09:42:38;;;;;;;;;;;21.00;47.90;;;;;;4997700;28;20546;-82
2021/04/26 09:45:22;;;;;;;;;;;21.00;47.50;;;;;;5004957;28;19933;-81
2021/04/26 09:47:50;;;;;;;;;;;21.10;47.80;;;;;;5014303;28;20888;-80
2021/04/26 09:50:16;;;;;;;;;;;21.10;47.80;;;;;;5007340;28;19951;-80
2021/04/26 09:52:43;;;;;;;;;;;21.10;47.80;;;;;;5005352;28;19951;-81
2021/04/26 09:55:30;;;;;;;;;;;21.20;47.70;;;;;;5003859;28;19960;-78
2021/04/26 09:57:56;;;;;;;;;;;21.10;47.50;;;;;;4997188;28;20312;-78
2021/04/26 10:00:23;;;;;;;;;;;21.20;47.50;;;;;;5009731;28;20020;-80
2021/04/26 10:02:50;;;;;;;;;;;21.20;47.50;;;;;;5010372;28;20137;-83
2021/04/26 10:05:17;;;;;;;;;;;21.20;47.70;;;;;;5008361;28;19953;-83
2021/04/26 10:07:45;;;;;;;;;;;21.20;47.50;;;;;;5012928;28;19932;-80
2021/04/26 10:10:13;;;;;;;;;;;21.20;47.40;;;;;;5010346;28;19926;-85
2021/04/26 10:12:39;;;;;;;;;;;21.30;47.90;;;;;;5009553;28;20110;-80
2021/04/26 10:15:07;;;;;;;;;;;21.30;47.70;;;;;;5005592;28;20028;-80
2021/04/26 10:17:37;;;;;;;;;;;21.30;48.00;;;;;;5008919;28;19934;-80
2021/04/26 10:20:07;;;;;;;;;;;21.30;45.20;;;;;;5007968;28;19939;-81
2021/04/26 10:22:37;;;;;;;;;;;21.20;45.20;;;;;;5011417;28;20221;-81
2021/04/26 10:25:06;;;;;;;;;;;21.10;45.10;;;;;;5008192;28;19933;-80
2021/04/26 10:27:34;;;;;;;;;;;21.00;45.10;;;;;;5008941;28;20015;-80
2021/04/26 10:30:03;;;;;;;;;;;21.00;45.20;;;;;;5010374;28;19929;-80
2021/04/26 10:32:30;;;;;;;;;;;21.00;45.40;;;;;;5006793;28;19925;-80
2021/04/26 10:34:57;;;;;;;;;;;20.90;45.30;;;;;;5005714;28;19929;-79
2021/04/26 10:37:25;;;;;;;;;;;20.90;45.40;;;;;;5010155;28;19933;-80
2021/04/26 10:39:55;;;;;;;;;;;20.90;45.50;;;;;;5009228;28;19989;-80
2021/04/26 10:42:37;;;;;;;;;;;20.90;45.60;;;;;;5007423;28;19929;-79
2021/04/26 10:45:13;;;;;;;;;;;20.80;45.50;;;;;;5009520;28;20276;-81
2021/04/26 10:47:40;;;;;;;;;;;20.80;45.60;;;;;;4995615;28;20864;-79
2021/04/26 10:50:14;;;;;;;;;;;20.70;45.50;;;;;;5005777;28;20217;-80
2021/04/26 10:52:48;;;;;;;;;;;20.80;45.50;;;;;;5005505;28;20744;-80
2021/04/26 10:55:18;;;;;;;;;;;20.80;45.60;;;;;;5001702;28;20380;-81
2021/04/26 10:57:49;;;;;;;;;;;20.80;45.60;;;;;;5005390;28;20374;-81
2021/04/26 11:00:30;;;;;;;;;;;20.80;45.70;;;;;;5015573;28;19929;-80
2021/04/26 11:02:56;;;;;;;;;;;20.70;46.70;;;;;;5009026;28;19925;-86
2021/04/26 11:05:28;;;;;;;;;;;20.90;47.00;;;;;;4998782;28;20132;-83
2021/04/26 11:08:18;;;;;;;;;;;21.00;47.30;;;;;;5007593;28;20373;-84
2021/04/26 11:10:48;;;;;;;;;;;21.10;47.30;;;;;;5007895;28;20452;-86
2021/04/26 11:13:36;;;;;;;;;;;21.20;46.90;;;;;;5006149;28;20399;-82
2021/04/26 11:16:02;;;;;;;;;;;21.20;47.10;;;;;;5002869;28;20397;-80
2021/04/26 11:18:29;;;;;;;;;;;21.30;47.40;;;;;;5009844;28;20019;-81
2021/04/26 11:20:55;;;;;;;;;;;21.40;47.20;;;;;;5008628;28;20305;-82
2021/04/26 11:23:41;;;;;;;;;;;21.50;47.10;;;;;;5009724;28;19929;-84
2021/04/26 11:26:11;;;;;;;;;;;21.50;47.00;;;;;;5009303;28;20376;-84
2021/04/26 11:28:56;;;;;;;;;;;21.60;47.30;;;;;;5006147;28;19933;-86
2021/04/26 11:31:48;;;;;;;;;;;21.60;47.00;;;;;;4998040;28;20271;-82
2021/04/26 11:34:17;;;;;;;;;;;21.60;46.90;;;;;;5007042;28;20691;-81
2021/04/26 11:37:00;;;;;;;;;;;21.70;47.00;;;;;;4994060;28;21414;-82
2021/04/26 11:39:30;;;;;;;;;;;21.70;46.70;;;;;;5009884;28;20020;-79
2021/04/26 11:41:57;;;;;;;;;;;21.70;45.70;;;;;;5014302;28;19930;-83
2021/04/26 11:44:25;;;;;;;;;;;21.60;43.90;;;;;;5011103;28;19925;-80
2021/04/26 11:46:53;;;;;;;;;;;21.50;43.90;;;;;;4994675;28;19991;-83
2021/04/26 11:49:21;;;;;;;;;;;21.50;45.50;;;;;;5005252;28;19980;-83
2021/04/26 11:51:48;;;;;;;;;;;21.60;46.70;;;;;;5005193;28;20285;-83
2021/04/26 11:54:17;;;;;;;;;;;21.70;46.10;;;;;;5006924;28;19926;-83
2021/04/26 11:57:01;;;;;;;;;;;21.80;46.70;;;;;;5007758;28;20688;-83
2021/04/26 11:59:28;;;;;;;;;;;21.90;46.80;;;;;;4997172;28;20339;-81
2021/04/26 12:01:56;;;;;;;;;;;21.80;45.40;;;;;;5003588;28;19944;-84
2021/04/26 12:04:32;;;;;;;;;;;21.90;46.20;;;;;;5005581;28;19929;-88
2021/04/26 12:06:59;;;;;;;;;;;22.00;46.40;;;;;;5010685;28;19941;-89
2021/04/26 12:09:27;;;;;;;;;;;22.00;46.40;;;;;;5007649;28;20571;-87
2021/04/26 12:12:00;;;;;;;;;;;22.10;46.60;;;;;;5005944;28;19926;-83
2021/04/26 12:14:26;;;;;;;;;;;22.10;46.70;;;;;;5005459;28;19925;-86
2021/04/26 12:17:12;;;;;;;;;;;22.20;46.60;;;;;;5008102;28;20361;-86
2021/04/26 12:19:38;;;;;;;;;;;22.30;47.00;;;;;;5011207;28;20142;-88
2021/04/26 12:22:04;;;;;;;;;;;22.30;46.60;;;;;;5007266;28;19941;-87
2021/04/26 12:24:30;;;;;;;;;;;22.40;47.30;;;;;;5007036;28;19976;-87
2021/04/26 12:26:57;;;;;;;;;;;22.40;46.20;;;;;;5000201;28;20333;-87
2021/04/26 12:29:24;;;;;;;;;;;22.40;46.20;;;;;;4995568;28;19933;-89
2021/04/26 12:32:13;;;;;;;;;;;22.50;45.70;;;;;;5018996;28;19926;-85
2021/04/26 12:34:50;;;;;;;;;;;22.50;45.70;;;;;;5006648;28;19980;-89
2021/04/26 12:37:17;;;;;;;;;;;22.50;45.30;;;;;;5007541;28;19964;-87
2021/04/26 12:39:44;;;;;;;;;;;22.60;45.60;;;;;;5008201;28;19926;-87
2021/04/26 12:42:11;;;;;;;;;;;22.60;45.70;;;;;;5014489;28;20797;-87
2021/04/26 12:44:38;;;;;;;;;;;22.60;45.50;;;;;;5023264;28;19925;-88
2021/04/26 12:47:33;;;;;;;;;;;22.70;46.60;;;;;;5008114;28;19932;-85
2021/04/26 12:50:13;;;;;;;;;;;22.70;45.10;;;;;;4989437;28;21655;-86
2021/04/26 12:52:39;;;;;;;;;;;22.80;45.60;;;;;;5011057;28;19929;-86
2021/04/26 12:55:11;;;;;;;;;;;22.80;45.80;;;;;;5021021;28;19933;-86
2021/04/26 12:57:37;;;;;;;;;;;22.90;45.90;;;;;;5009984;28;19933;-85
2021/04/26 13:00:06;;;;;;;;;;;22.90;45.40;;;;;;5023658;28;19929;-88
2021/04/26 13:02:32;;;;;;;;;;;22.90;45.00;;;;;;5011376;28;19926;-85
2021/04/26 13:04:58;;;;;;;;;;;23.00;45.50;;;;;;5011665;28;20044;-88
2021/04/26 13:07:25;;;;;;;;;;;23.10;45.50;;;;;;5017037;28;19925;-87
2021/04/26 13:10:02;;;;;;;;;;;23.10;45.40;;;;;;5002514;28;19933;-85
2021/04/26 13:12:28;;;;;;;;;;;23.10;45.40;;;;;;5014358;28;19929;-86
2021/04/26 13:14:54;;;;;;;;;;;23.20;45.00;;;;;;5021116;28;19925;-87
2021/04/26 13:17:31;;;;;;;;;;;23.20;45.50;;;;;;4999612;28;19925;-84
2021/04/26 13:20:16;;;;;;;;;;;23.20;45.40;;;;;;5008798;28;19933;-86
2021/04/26 13:22:42;;;;;;;;;;;23.30;45.40;;;;;;5012747;28;19925;-84
2021/04/26 13:25:09;;;;;;;;;;;23.30;45.30;;;;;;5012069;28;20112;-87
2021/04/26 13:27:48;;;;;;;;;;;23.30;45.00;;;;;;5010138;28;19940;-89
2021/04/26 13:30:16;;;;;;;;;;;23.30;45.40;;;;;;5006983;28;19937;-89
2021/04/26 13:32:42;;;;;;;;;;;23.40;45.70;;;;;;5010567;28;19952;-88
2021/04/26 13:35:09;;;;;;;;;;;23.40;45.90;;;;;;5028326;28;19925;-90
2021/04/26 13:37:52;;;;;;;;;;;23.40;45.60;;;;;;4974392;28;19929;-90
2021/04/26 13:40:18;;;;;;;;;;;23.40;45.70;;;;;;4995020;28;20321;-86
2021/04/26 13:42:44;;;;;;;;;;;23.40;44.10;;;;;;4999416;28;20010;-82
2021/04/26 13:45:11;;;;;;;;;;;23.10;41.10;;;;;;5015756;28;20588;-85
2021/04/26 13:47:37;;;;;;;;;;;23.00;40.90;;;;;;4997774;28;20361;-82
2021/04/26 13:50:04;;;;;;;;;;;22.90;41.90;;;;;;5014023;28;19968;-84
2021/04/26 13:52:30;;;;;;;;;;;23.00;42.80;;;;;;5011158;28;19926;-80
2021/04/26 13:54:56;;;;;;;;;;;23.20;43.90;;;;;;5006016;28;19925;-82
2021/04/26 13:57:25;;;;;;;;;;;23.20;43.90;;;;;;5007245;28;19933;-82
2021/04/26 13:59:52;;;;;;;;;;;23.30;44.60;;;;;;5004818;28;19925;-87
2021/04/26 14:02:18;;;;;;;;;;;23.30;44.70;;;;;;5009833;28;20308;-88
2021/04/26 14:04:45;;;;;;;;;;;23.30;45.20;;;;;;5009500;28;19933;-82
2021/04/26 14:07:11;;;;;;;;;;;23.40;45.20;;;;;;5009037;28;20204;-82
2021/04/26 14:09:37;;;;;;;;;;;23.40;45.10;;;;;;5009243;28;20558;-83
2021/04/26 14:12:04;;;;;;;;;;;23.50;44.80;;;;;;5007206;28;19925;-82
2021/04/26 14:14:30;;;;;;;;;;;23.50;45.30;;;;;;5007021;28;19929;-82
2021/04/26 14:16:57;;;;;;;;;;;23.50;44.90;;;;;;5006754;28;19925;-82
2021/04/26 14:19:23;;;;;;;;;;;23.60;45.70;;;;;;5006613;28;19930;-82
2021/04/26 14:21:50;;;;;;;;;;;23.60;45.50;;;;;;5017527;28;19925;-81
2021/04/26 14:24:16;;;;;;;;;;;23.70;45.50;;;;;;5004889;28;19933;-83